sensor_id;sensor_type;location;lat;lon;timestamp;pressure;altitude;pressure_sealevel;temperature;humidity
67840;BME280;54636;51.684;5.142;2022-11-20T00:00:00;101381.19;;;-3.04;100.00
67840;BME280;54636;51.684;5.142;2022-11-20T00:02:26;101369.78;;;-3.08;100.00
67840;BME280;54636;51.684;5.142;2022-11-20T00:04:51;101379.69;;;-3.01;100.00
67840;BME280;54636;51.684;5.142;2022-11-20T00:07:16;101384.22;;;-3.09;100.00
67840;BME280;54636;51.684;5.142;2022-11-20T00:09:42;101390.28;;;-3.12;100.00
67840;BME280;54636;51.684;5.142;2022-11-20T00:12:07;101389.13;;;-3.11;100.00
67840;BME280;54636;51.684;5.142;2022-11-20T00:14:33;101368.97;;;-3.26;100.00
67840;BME280;54636;51.684;5.142;2022-11-20T00:16:58;101376.91;;;-3.29;100.00
67840;BME280;54636;51.684;5.142;2022-11-20T00:19:23;101388.69;;;-3.23;100.00
67840;BME280;54636;51.684;5.142;2022-11-20T00:21:49;101388.66;;;-3.30;100.00
67840;BME280;54636;51.684;5.142;2022-11-20T00:24:16;101382.22;;;-3.33;100.00
67840;BME280;54636;51.684;5.142;2022-11-20T00:26:42;101386.72;;;-3.41;100.00
67840;BME280;54636;51.684;5.142;2022-11-20T00:29:08;101382.47;;;-3.49;100.00
67840;BME280;54636;51.684;5.142;2022-11-20T00:31:34;101386.66;;;-3.48;100.00
67840;BME280;54636;51.684;5.142;2022-11-20T00:34:00;101387.78;;;-3.52;100.00
67840;BME280;54636;51.684;5.142;2022-11-20T00:36:27;101388.88;;;-3.57;100.00
67840;BME280;54636;51.684;5.142;2022-11-20T00:38:54;101383.91;;;-3.62;100.00
67840;BME280;54636;51.684;5.142;2022-11-20T00:41:21;101388.47;;;-3.59;100.00
67840;BME280;54636;51.684;5.142;2022-11-20T00:43:46;101372.09;;;-3.72;100.00
67840;BME280;54636;51.684;5.142;2022-11-20T00:46:14;101377.34;;;-3.79;100.00
67840;BME280;54636;51.684;5.142;2022-11-20T00:48:41;101372.44;;;-3.77;100.00
67840;BME280;54636;51.684;5.142;2022-11-20T00:51:06;101366.28;;;-3.88;100.00
67840;BME280;54636;51.684;5.142;2022-11-20T00:53:32;101389.50;;;-3.74;100.00
67840;BME280;54636;51.684;5.142;2022-11-20T00:56:03;101380.00;;;-3.79;100.00
67840;BME280;54636;51.684;5.142;2022-11-20T00:58:34;101365.50;;;-3.92;100.00
67840;BME280;54636;51.684;5.142;2022-11-20T01:01:04;101368.94;;;-3.91;100.00
67840;BME280;54636;51.684;5.142;2022-11-20T01:03:38;101371.56;;;-3.88;100.00
67840;BME280;54636;51.684;5.142;2022-11-20T01:06:07;101362.78;;;-4.03;100.00
67840;BME280;54636;51.684;5.142;2022-11-20T01:08:35;101381.44;;;-3.88;100.00
67840;BME280;54636;51.684;5.142;2022-11-20T01:11:10;101386.75;;;-3.88;100.00
67840;BME280;54636;51.684;5.142;2022-11-20T01:13:36;101387.13;;;-3.90;100.00
67840;BME280;54636;51.684;5.142;2022-11-20T01:18:34;101378.00;;;-3.89;100.00
67840;BME280;54636;51.684;5.142;2022-11-20T01:21:02;101372.72;;;-3.89;100.00
67840;BME280;54636;51.684;5.142;2022-11-20T01:23:31;101367.78;;;-3.94;100.00
67840;BME280;54636;51.684;5.142;2022-11-20T01:25:59;101345.28;;;-4.07;100.00
67840;BME280;54636;51.684;5.142;2022-11-20T01:28:25;101345.69;;;-4.05;100.00
67840;BME280;54636;51.684;5.142;2022-11-20T01:30:50;101375.72;;;-3.94;100.00
67840;BME280;54636;51.684;5.142;2022-11-20T01:33:15;101352.78;;;-4.16;100.00
67840;BME280;54636;51.684;5.142;2022-11-20T01:35:40;101372.63;;;-4.03;100.00
67840;BME280;54636;51.684;5.142;2022-11-20T01:38:06;101384.34;;;-4.04;100.00
67840;BME280;54636;51.684;5.142;2022-11-20T01:40:31;101343.16;;;-4.35;100.00
67840;BME280;54636;51.684;5.142;2022-11-20T01:43:12;101383.91;;;-4.13;100.00
67840;BME280;54636;51.684;5.142;2022-11-20T01:46:17;101382.38;;;-4.14;100.00
67840;BME280;54636;51.684;5.142;2022-11-20T01:48:48;101371.34;;;-4.20;100.00
67840;BME280;54636;51.684;5.142;2022-11-20T01:51:25;101375.91;;;-4.17;100.00
67840;BME280;54636;51.684;5.142;2022-11-20T01:53:55;101366.03;;;-4.20;100.00
67840;BME280;54636;51.684;5.142;2022-11-20T01:56:23;101368.28;;;-4.22;100.00
67840;BME280;54636;51.684;5.142;2022-11-20T01:58:53;101359.50;;;-4.29;100.00
67840;BME280;54636;51.684;5.142;2022-11-20T02:01:20;101373.94;;;-4.23;100.00
67840;BME280;54636;51.684;5.142;2022-11-20T02:03:47;101364.09;;;-4.23;100.00
67840;BME280;54636;51.684;5.142;2022-11-20T02:06:57;101360.69;;;-4.23;100.00
67840;BME280;54636;51.684;5.142;2022-11-20T02:09:24;101347.31;;;-4.34;100.00
67840;BME280;54636;51.684;5.142;2022-11-20T02:11:50;101361.41;;;-4.26;100.00
67840;BME280;54636;51.684;5.142;2022-11-20T02:14:15;101369.78;;;-4.24;100.00
67840;BME280;54636;51.684;5.142;2022-11-20T02:16:45;101357.53;;;-4.36;100.00
67840;BME280;54636;51.684;5.142;2022-11-20T02:19:21;101362.84;;;-4.36;100.00
67840;BME280;54636;51.684;5.142;2022-11-20T02:24:17;101369.28;;;-4.37;100.00
67840;BME280;54636;51.684;5.142;2022-11-20T02:26:49;101366.22;;;-4.39;100.00
67840;BME280;54636;51.684;5.142;2022-11-20T02:29:19;101349.81;;;-4.52;100.00
67840;BME280;54636;51.684;5.142;2022-11-20T02:31:48;101363.16;;;-4.41;100.00
67840;BME280;54636;51.684;5.142;2022-11-20T02:34:13;101362.00;;;-4.44;100.00
67840;BME280;54636;51.684;5.142;2022-11-20T02:36:40;101364.63;;;-4.47;100.00
67840;BME280;54636;51.684;5.142;2022-11-20T02:39:07;101364.97;;;-4.49;100.00
67840;BME280;54636;51.684;5.142;2022-11-20T02:41:36;101356.22;;;-4.56;100.00
67840;BME280;54636;51.684;5.142;2022-11-20T02:44:03;101353.28;;;-4.44;100.00
67840;BME280;54636;51.684;5.142;2022-11-20T02:46:30;101349.47;;;-4.47;100.00
67840;BME280;54636;51.684;5.142;2022-11-20T02:48:55;101353.31;;;-4.41;100.00
67840;BME280;54636;51.684;5.142;2022-11-20T02:51:21;101331.25;;;-4.52;100.00
67840;BME280;54636;51.684;5.142;2022-11-20T02:53:46;101351.41;;;-4.44;100.00
67840;BME280;54636;51.684;5.142;2022-11-20T02:56:11;101333.47;;;-4.61;100.00
67840;BME280;54636;51.684;5.142;2022-11-20T02:58:37;101347.91;;;-4.51;100.00
67840;BME280;54636;51.684;5.142;2022-11-20T03:01:03;101353.25;;;-4.48;100.00
67840;BME280;54636;51.684;5.142;2022-11-20T03:03:28;101348.72;;;-4.47;100.00
67840;BME280;54636;51.684;5.142;2022-11-20T03:05:53;101325.91;;;-4.59;100.00
67840;BME280;54636;51.684;5.142;2022-11-20T03:08:19;101340.00;;;-4.48;100.00
67840;BME280;54636;51.684;5.142;2022-11-20T03:10:44;101342.00;;;-4.38;100.00
67840;BME280;54636;51.684;5.142;2022-11-20T03:13:10;101335.94;;;-4.38;100.00
67840;BME280;54636;51.684;5.142;2022-11-20T03:15:36;101327.88;;;-4.49;100.00
67840;BME280;54636;51.684;5.142;2022-11-20T03:18:02;101331.72;;;-4.43;100.00
67840;BME280;54636;51.684;5.142;2022-11-20T03:20:27;101340.88;;;-4.37;100.00
67840;BME280;54636;51.684;5.142;2022-11-20T03:22:54;101325.69;;;-4.40;100.00
67840;BME280;54636;51.684;5.142;2022-11-20T03:25:19;101329.56;;;-4.30;100.00
67840;BME280;54636;51.684;5.142;2022-11-20T03:27:45;101314.00;;;-4.32;100.00
67840;BME280;54636;51.684;5.142;2022-11-20T03:30:10;101317.47;;;-4.27;100.00
67840;BME280;54636;51.684;5.142;2022-11-20T03:32:36;101301.13;;;-4.33;100.00
67840;BME280;54636;51.684;5.142;2022-11-20T03:35:01;101313.97;;;-4.35;100.00
67840;BME280;54636;51.684;5.142;2022-11-20T03:37:27;101326.81;;;-4.41;100.00
67840;BME280;54636;51.684;5.142;2022-11-20T03:39:52;101308.94;;;-4.47;100.00
67840;BME280;54636;51.684;5.142;2022-11-20T03:42:17;101307.41;;;-4.48;100.00
67840;BME280;54636;51.684;5.142;2022-11-20T03:45:17;101312.78;;;-4.41;100.00
67840;BME280;54636;51.684;5.142;2022-11-20T03:47:44;101288.13;;;-4.45;100.00
67840;BME280;54636;51.684;5.142;2022-11-20T03:50:11;101298.00;;;-4.42;100.00
67840;BME280;54636;51.684;5.142;2022-11-20T03:52:40;101289.97;;;-4.53;100.00
67840;BME280;54636;51.684;5.142;2022-11-20T03:55:06;101299.81;;;-4.50;100.00
67840;BME280;54636;51.684;5.142;2022-11-20T03:57:32;101280.03;;;-4.63;100.00
67840;BME280;54636;51.684;5.142;2022-11-20T03:59:58;101289.19;;;-4.53;100.00
67840;BME280;54636;51.684;5.142;2022-11-20T04:02:23;101296.06;;;-4.49;100.00
67840;BME280;54636;51.684;5.142;2022-11-20T04:04:48;101272.88;;;-4.59;100.00
67840;BME280;54636;51.684;5.142;2022-11-20T04:07:14;101282.75;;;-4.52;100.00
67840;BME280;54636;51.684;5.142;2022-11-20T04:09:39;101285.41;;;-4.56;100.00
67840;BME280;54636;51.684;5.142;2022-11-20T04:12:05;101291.84;;;-4.57;100.00
67840;BME280;54636;51.684;5.142;2022-11-20T04:14:30;101280.03;;;-4.63;100.00
67840;BME280;54636;51.684;5.142;2022-11-20T04:16:55;101237.75;;;-4.89;100.00
67840;BME280;54636;51.684;5.142;2022-11-20T04:19:21;101272.81;;;-4.66;100.00
67840;BME280;54636;51.684;5.142;2022-11-20T04:21:46;101275.47;;;-4.66;100.00
67840;BME280;54636;51.684;5.142;2022-11-20T04:24:13;101289.78;;;-4.74;100.00
67840;BME280;54636;51.684;5.142;2022-11-20T04:26:38;101291.63;;;-4.78;100.00
67840;BME280;54636;51.684;5.142;2022-11-20T04:29:04;101293.88;;;-4.80;100.00
67840;BME280;54636;51.684;5.142;2022-11-20T04:31:32;101288.94;;;-4.82;100.00
67840;BME280;54636;51.684;5.142;2022-11-20T04:34:02;101280.16;;;-4.89;100.00
67840;BME280;54636;51.684;5.142;2022-11-20T04:36:28;101274.84;;;-4.89;100.00
67840;BME280;54636;51.684;5.142;2022-11-20T04:39:05;101271.44;;;-4.90;100.00
67840;BME280;54636;51.684;5.142;2022-11-20T04:41:33;101271.09;;;-4.88;100.00
67840;BME280;54636;51.684;5.142;2022-11-20T04:44:00;101268.03;;;-4.90;100.00
67840;BME280;54636;51.684;5.142;2022-11-20T04:46:29;101257.75;;;-4.95;100.00
67840;BME280;54636;51.684;5.142;2022-11-20T04:48:55;101267.91;;;-5.01;100.00
67840;BME280;54636;51.684;5.142;2022-11-20T04:51:21;101263.38;;;-5.01;100.00
67840;BME280;54636;51.684;5.142;2022-11-20T04:53:48;101262.19;;;-5.07;100.00
67840;BME280;54636;51.684;5.142;2022-11-20T04:56:14;101262.19;;;-5.07;100.00
67840;BME280;54636;51.684;5.142;2022-11-20T04:58:39;101257.38;;;-4.98;100.00
67840;BME280;54636;51.684;5.142;2022-11-20T05:01:13;101258.97;;;-4.89;100.00
67840;BME280;54636;51.684;5.142;2022-11-20T05:03:40;101255.50;;;-4.93;100.00
67840;BME280;54636;51.684;5.142;2022-11-20T05:06:06;101240.59;;;-5.09;100.00
67840;BME280;54636;51.684;5.142;2022-11-20T05:08:32;101255.41;;;-5.04;100.00
67840;BME280;54636;51.684;5.142;2022-11-20T05:11:03;101243.94;;;-5.15;100.00
67840;BME280;54636;51.684;5.142;2022-11-20T05:13:28;101259.53;;;-5.07;100.00
67840;BME280;54636;51.684;5.142;2022-11-20T05:15:54;101254.19;;;-5.10;100.00
67840;BME280;54636;51.684;5.142;2022-11-20T05:18:19;101254.16;;;-5.14;100.00
67840;BME280;54636;51.684;5.142;2022-11-20T05:20:45;101250.75;;;-5.14;100.00
67840;BME280;54636;51.684;5.142;2022-11-20T05:23:10;101249.19;;;-5.19;100.00
67840;BME280;54636;51.684;5.142;2022-11-20T05:25:35;101246.53;;;-5.19;100.00
67840;BME280;54636;51.684;5.142;2022-11-20T05:28:01;101240.06;;;-5.25;100.00
67840;BME280;54636;51.684;5.142;2022-11-20T05:30:26;101233.28;;;-5.22;100.00
67840;BME280;54636;51.684;5.142;2022-11-20T05:32:51;101242.00;;;-5.18;100.00
67840;BME280;54636;51.684;5.142;2022-11-20T05:35:17;101242.41;;;-5.20;100.00
67840;BME280;54636;51.684;5.142;2022-11-20T05:37:42;101242.34;;;-5.23;100.00
67840;BME280;54636;51.684;5.142;2022-11-20T05:40:08;101250.63;;;-5.28;100.00
67840;BME280;54636;51.684;5.142;2022-11-20T05:42:33;101249.84;;;-5.29;100.00
67840;BME280;54636;51.684;5.142;2022-11-20T05:45:04;101258.16;;;-5.31;100.00
67840;BME280;54636;51.684;5.142;2022-11-20T05:47:34;101237.25;;;-5.39;100.00
67840;BME280;54636;51.684;5.142;2022-11-20T05:50:00;101260.81;;;-5.31;100.00
67840;BME280;54636;51.684;5.142;2022-11-20T05:52:28;101257.41;;;-5.31;100.00
67840;BME280;54636;51.684;5.142;2022-11-20T05:54:54;101257.41;;;-5.31;100.00
67840;BME280;54636;51.684;5.142;2022-11-20T05:57:20;101269.47;;;-5.34;100.00
67840;BME280;54636;51.684;5.142;2022-11-20T05:59:45;101266.06;;;-5.34;100.00
67840;BME280;54636;51.684;5.142;2022-11-20T06:02:11;101267.91;;;-5.38;100.00
67840;BME280;54636;51.684;5.142;2022-11-20T06:04:36;101254.94;;;-5.47;100.00
67840;BME280;54636;51.684;5.142;2022-11-20T06:07:01;101266.06;;;-5.34;100.00
67840;BME280;54636;51.684;5.142;2022-11-20T06:09:27;101257.00;;;-5.33;100.00
67840;BME280;54636;51.684;5.142;2022-11-20T06:11:52;101260.81;;;-5.31;100.00
67840;BME280;54636;51.684;5.142;2022-11-20T06:14:18;101262.69;;;-5.31;100.00
67840;BME280;54636;51.684;5.142;2022-11-20T06:16:43;101263.81;;;-5.32;100.00
67840;BME280;54636;51.684;5.142;2022-11-20T06:19:09;101262.72;;;-5.27;100.00
67840;BME280;54636;51.684;5.142;2022-11-20T06:21:34;101246.03;;;-5.32;100.00
67840;BME280;54636;51.684;5.142;2022-11-20T06:23:59;101237.69;;;-5.34;100.00
67840;BME280;54636;51.684;5.142;2022-11-20T06:26:26;101244.16;;;-5.31;100.00
67840;BME280;54636;51.684;5.142;2022-11-20T06:28:53;101252.91;;;-5.27;100.00
67840;BME280;54636;51.684;5.142;2022-11-20T06:31:21;101237.75;;;-5.30;100.00
67840;BME280;54636;51.684;5.142;2022-11-20T06:33:47;101236.66;;;-5.25;100.00
67840;BME280;54636;51.684;5.142;2022-11-20T06:36:14;101243.59;;;-5.10;100.00
67840;BME280;54636;51.684;5.142;2022-11-20T06:38:40;101238.38;;;-5.03;100.00
67840;BME280;54636;51.684;5.142;2022-11-20T06:41:08;101239.22;;;-4.95;100.00
67840;BME280;54636;51.684;5.142;2022-11-20T06:43:35;101241.69;;;-4.76;100.00
67840;BME280;54636;51.684;5.142;2022-11-20T06:46:01;101230.75;;;-4.71;100.00
67840;BME280;54636;51.684;5.142;2022-11-20T06:48:27;101225.50;;;-4.64;100.00
67840;BME280;54636;51.684;5.142;2022-11-20T06:50:53;101241.41;;;-4.64;100.00
67840;BME280;54636;51.684;5.142;2022-11-20T06:53:18;101243.59;;;-4.73;100.00
67840;BME280;54636;51.684;5.142;2022-11-20T06:55:45;101248.09;;;-4.77;100.00
67840;BME280;54636;51.684;5.142;2022-11-20T06:58:11;101242.03;;;-4.78;100.00
67840;BME280;54636;51.684;5.142;2022-11-20T07:00:37;101223.81;;;-4.83;100.00
67840;BME280;54636;51.684;5.142;2022-11-20T07:03:07;101229.94;;;-4.75;100.00
67840;BME280;54636;51.684;5.142;2022-11-20T07:05:34;101239.50;;;-4.67;100.00
67840;BME280;54636;51.684;5.142;2022-11-20T07:08:00;101239.88;;;-4.65;100.00
67840;BME280;54636;51.684;5.142;2022-11-20T07:10:25;101236.88;;;-4.63;100.00
67840;BME280;54636;51.684;5.142;2022-11-20T07:12:52;101220.19;;;-4.68;100.00
67840;BME280;54636;51.684;5.142;2022-11-20T07:15:18;101227.09;;;-4.56;100.00
67840;BME280;54636;51.684;5.142;2022-11-20T07:17:44;101226.44;;;-4.39;100.00
67840;BME280;54636;51.684;5.142;2022-11-20T07:20:10;101219.66;;;-4.36;100.00
67840;BME280;54636;51.684;5.142;2022-11-20T07:22:35;101231.84;;;-4.28;100.00
67840;BME280;54636;51.684;5.142;2022-11-20T07:25:00;101234.59;;;-4.14;100.00
67840;BME280;54636;51.684;5.142;2022-11-20T07:27:27;101228.84;;;-4.23;100.00
67840;BME280;54636;51.684;5.142;2022-11-20T07:29:52;101230.09;;;-4.06;100.00
67840;BME280;54636;51.684;5.142;2022-11-20T07:32:18;101229.75;;;-3.97;100.00
67840;BME280;54636;51.684;5.142;2022-11-20T07:34:43;101230.50;;;-4.01;100.00
67840;BME280;54636;51.684;5.142;2022-11-20T07:37:08;101205.44;;;-4.07;100.00
67840;BME280;54636;51.684;5.142;2022-11-20T07:39:34;101224.50;;;-3.83;100.00
67840;BME280;54636;51.684;5.142;2022-11-20T07:41:59;101219.63;;;-3.74;100.00
67840;BME280;54636;51.684;5.142;2022-11-20T07:44:25;101213.56;;;-3.71;100.00
67840;BME280;54636;51.684;5.142;2022-11-20T07:46:50;101203.34;;;-3.69;100.00
67840;BME280;54636;51.684;5.142;2022-11-20T07:49:15;101206.41;;;-3.63;100.00
67840;BME280;54636;51.684;5.142;2022-11-20T07:51:41;101208.72;;;-3.55;100.00
67840;BME280;54636;51.684;5.142;2022-11-20T07:54:06;101226.97;;;-3.43;100.00
67840;BME280;54636;51.684;5.142;2022-11-20T07:56:31;101229.28;;;-3.38;100.00
67840;BME280;54636;51.684;5.142;2022-11-20T07:58:57;101216.38;;;-3.36;100.00
67840;BME280;54636;51.684;5.142;2022-11-20T08:01:22;101233.84;;;-3.20;100.00
67840;BME280;54636;51.684;5.142;2022-11-20T08:03:48;101233.50;;;-3.12;100.00
67840;BME280;54636;51.684;5.142;2022-11-20T08:06:13;101221.72;;;-3.11;100.00
67840;BME280;54636;51.684;5.142;2022-11-20T08:08:40;101219.47;;;-3.05;100.00
67840;BME280;54636;51.684;5.142;2022-11-20T08:11:06;101227.47;;;-2.94;100.00
67840;BME280;54636;51.684;5.142;2022-11-20T08:13:50;101203.91;;;-3.03;100.00
67840;BME280;54636;51.684;5.142;2022-11-20T08:16:34;101237.34;;;-2.84;100.00
67840;BME280;54636;51.684;5.142;2022-11-20T08:19:00;101226.34;;;-2.86;100.00
67840;BME280;54636;51.684;5.142;2022-11-20T08:21:25;101240.41;;;-2.75;100.00
67840;BME280;54636;51.684;5.142;2022-11-20T08:23:50;101225.59;;;-2.76;100.00
67840;BME280;54636;51.684;5.142;2022-11-20T08:26:16;101235.88;;;-2.60;100.00
67840;BME280;54636;51.684;5.142;2022-11-20T08:28:41;101193.69;;;-2.83;100.00
67840;BME280;54636;51.684;5.142;2022-11-20T08:31:06;101236.22;;;-2.48;100.00
67840;BME280;54636;51.684;5.142;2022-11-20T08:33:32;101222.53;;;-2.50;100.00
67840;BME280;54636;51.684;5.142;2022-11-20T08:36:02;101227.88;;;-2.32;100.00
67840;BME280;54636;51.684;5.142;2022-11-20T08:38:28;101228.25;;;-2.26;100.00
67840;BME280;54636;51.684;5.142;2022-11-20T08:40:59;101220.25;;;-2.19;100.00
67840;BME280;54636;51.684;5.142;2022-11-20T08:43:44;101210.38;;;-2.15;100.00
67840;BME280;54636;51.684;5.142;2022-11-20T08:46:09;101213.38;;;-2.06;100.00
67840;BME280;54636;51.684;5.142;2022-11-20T08:48:35;101219.84;;;-1.96;100.00
67840;BME280;54636;51.684;5.142;2022-11-20T08:51:00;101230.06;;;-1.88;100.00
67840;BME280;54636;51.684;5.142;2022-11-20T08:53:26;101216.34;;;-1.79;100.00
67840;BME280;54636;51.684;5.142;2022-11-20T08:55:52;101226.97;;;-1.69;100.00
67840;BME280;54636;51.684;5.142;2022-11-20T08:58:17;101228.09;;;-1.62;100.00
67840;BME280;54636;51.684;5.142;2022-11-20T09:00:42;101215.91;;;-1.60;100.00
67840;BME280;54636;51.684;5.142;2022-11-20T09:03:08;101221.59;;;-1.54;100.00
67840;BME280;54636;51.684;5.142;2022-11-20T09:05:33;101224.59;;;-1.49;100.00
67840;BME280;54636;51.684;5.142;2022-11-20T09:07:59;101206.69;;;-1.45;100.00
67840;BME280;54636;51.684;5.142;2022-11-20T09:10:25;101207.41;;;-1.34;100.00
67840;BME280;54636;51.684;5.142;2022-11-20T09:12:52;101205.44;;;-1.26;100.00
67840;BME280;54636;51.684;5.142;2022-11-20T09:15:18;101190.59;;;-1.27;100.00
67840;BME280;54636;51.684;5.142;2022-11-20T09:17:57;101203.81;;;-1.09;100.00
67840;BME280;54636;51.684;5.142;2022-11-20T09:20:23;101200.00;;;-1.08;100.00
67840;BME280;54636;51.684;5.142;2022-11-20T09:22:50;101206.00;;;-0.93;100.00
67840;BME280;54636;51.684;5.142;2022-11-20T09:25:15;101180.88;;;-0.96;100.00
67840;BME280;54636;51.684;5.142;2022-11-20T09:27:40;101186.53;;;-0.87;100.00
67840;BME280;54636;51.684;5.142;2022-11-20T09:30:12;101183.81;;;-0.76;100.00
67840;BME280;54636;51.684;5.142;2022-11-20T09:32:41;101179.09;;;-0.61;100.00
67840;BME280;54636;51.684;5.142;2022-11-20T09:35:07;101161.63;;;-0.66;100.00
67840;BME280;54636;51.684;5.142;2022-11-20T09:37:33;101171.78;;;-0.54;100.00
67840;BME280;54636;51.684;5.142;2022-11-20T09:39:58;101165.97;;;-0.45;100.00
67840;BME280;54636;51.684;5.142;2022-11-20T09:42:42;101167.09;;;-0.43;100.00
67840;BME280;54636;51.684;5.142;2022-11-20T09:48:03;101161.66;;;-0.32;100.00
67840;BME280;54636;51.684;5.142;2022-11-20T09:50:52;101155.53;;;-0.29;100.00
67840;BME280;54636;51.684;5.142;2022-11-20T09:53:33;101150.56;;;-0.27;100.00
67840;BME280;54636;51.684;5.142;2022-11-20T09:56:02;101151.63;;;-0.21;100.00
67840;BME280;54636;51.684;5.142;2022-11-20T09:58:32;101155.78;;;-0.16;100.00
67840;BME280;54636;51.684;5.142;2022-11-20T10:01:10;101139.69;;;-0.09;100.00
67840;BME280;54636;51.684;5.142;2022-11-20T10:03:46;101128.63;;;-0.08;100.00
67840;BME280;54636;51.684;5.142;2022-11-20T10:06:17;101124.34;;;-0.02;100.00
67840;BME280;54636;51.684;5.142;2022-11-20T10:25:19;101086.28;;;0.72;100.00
67840;BME280;54636;51.684;5.142;2022-11-20T10:28:12;101072.88;;;0.75;100.00
67840;BME280;54636;51.684;5.142;2022-11-20T10:30:43;101066.31;;;0.80;100.00
67840;BME280;54636;51.684;5.142;2022-11-20T10:33:16;101063.94;;;0.85;100.00
67840;BME280;54636;51.684;5.142;2022-11-20T10:36:12;101062.31;;;0.91;100.00
67840;BME280;54636;51.684;5.142;2022-11-20T10:38:51;101068.13;;;1.10;100.00
67840;BME280;54636;51.684;5.142;2022-11-20T10:41:41;101053.88;;;1.16;100.00
67840;BME280;54636;51.684;5.142;2022-11-20T10:46:45;101049.53;;;1.42;100.00
67840;BME280;54636;51.684;5.142;2022-11-20T10:49:13;101043.31;;;1.49;100.00
67840;BME280;54636;51.684;5.142;2022-11-20T10:51:52;101039.06;;;1.51;100.00
67840;BME280;54636;51.684;5.142;2022-11-20T10:54:43;101032.88;;;1.54;100.00
67840;BME280;54636;51.684;5.142;2022-11-20T10:57:25;101034.38;;;1.55;100.00
67840;BME280;54636;51.684;5.142;2022-11-20T11:00:10;101033.69;;;1.71;100.00
67840;BME280;54636;51.684;5.142;2022-11-20T11:02:54;101028.22;;;1.58;100.00
67840;BME280;54636;51.684;5.142;2022-11-20T11:08:37;101011.59;;;1.67;100.00
67840;BME280;54636;51.684;5.142;2022-11-20T11:11:18;101017.00;;;1.63;100.00
67840;BME280;54636;51.684;5.142;2022-11-20T11:13:45;101021.13;;;1.68;100.00
67840;BME280;54636;51.684;5.142;2022-11-20T11:16:22;101010.16;;;1.62;100.00
67840;BME280;54636;51.684;5.142;2022-11-20T11:18:48;101018.88;;;1.67;100.00
67840;BME280;54636;51.684;5.142;2022-11-20T11:21:21;101011.38;;;1.78;100.00
67840;BME280;54636;51.684;5.142;2022-11-20T11:23:58;101007.59;;;1.75;100.00
67840;BME280;54636;51.684;5.142;2022-11-20T11:26:24;101003.25;;;1.81;100.00
67840;BME280;54636;51.684;5.142;2022-11-20T11:29:02;100997.91;;;1.81;100.00
67840;BME280;54636;51.684;5.142;2022-11-20T11:31:30;100993.31;;;1.82;100.00
67840;BME280;54636;51.684;5.142;2022-11-20T11:34:12;100984.72;;;1.90;100.00
67840;BME280;54636;51.684;5.142;2022-11-20T11:36:38;100974.66;;;1.94;100.00
67840;BME280;54636;51.684;5.142;2022-11-20T11:39:10;100967.28;;;1.98;100.00
67840;BME280;54636;51.684;5.142;2022-11-20T11:41:36;100969.03;;;2.05;100.00
67840;BME280;54636;51.684;5.142;2022-11-20T11:44:19;100966.53;;;2.14;100.00
67840;BME280;54636;51.684;5.142;2022-11-20T11:47:05;100956.84;;;2.20;100.00
67840;BME280;54636;51.684;5.142;2022-11-20T11:49:34;100938.06;;;2.20;100.00
67840;BME280;54636;51.684;5.142;2022-11-20T11:52:14;100931.53;;;2.38;100.00
67840;BME280;54636;51.684;5.142;2022-11-20T11:55:15;100917.88;;;2.48;100.00
67840;BME280;54636;51.684;5.142;2022-11-20T11:57:59;100894.53;;;2.61;100.00
67840;BME280;54636;51.684;5.142;2022-11-20T12:00:27;100891.22;;;2.70;100.00
67840;BME280;54636;51.684;5.142;2022-11-20T12:05:44;100890.81;;;2.72;100.00
67840;BME280;54636;51.684;5.142;2022-11-20T12:08:34;100878.25;;;2.69;100.00
67840;BME280;54636;51.684;5.142;2022-11-20T12:11:16;100881.34;;;2.67;100.00
67840;BME280;54636;51.684;5.142;2022-11-20T12:13:57;100861.59;;;2.61;100.00
67840;BME280;54636;51.684;5.142;2022-11-20T12:16:24;100876.56;;;2.75;100.00
67840;BME280;54636;51.684;5.142;2022-11-20T12:18:51;100863.44;;;2.64;100.00
67840;BME280;54636;51.684;5.142;2022-11-20T12:32:17;100856.13;;;2.93;100.00
67840;BME280;54636;51.684;5.142;2022-11-20T12:37:49;100847.66;;;2.95;100.00
67840;BME280;54636;51.684;5.142;2022-11-20T12:40:52;100840.25;;;3.12;100.00
67840;BME280;54636;51.684;5.142;2022-11-20T12:43:27;100846.25;;;3.03;100.00
67840;BME280;54636;51.684;5.142;2022-11-20T12:46:42;100835.09;;;3.05;100.00
67840;BME280;54636;51.684;5.142;2022-11-20T12:57:58;100798.28;;;3.18;100.00
67840;BME280;54636;51.684;5.142;2022-11-20T13:00:30;100799.56;;;3.26;100.00
67840;BME280;54636;51.684;5.142;2022-11-20T13:05:41;100779.59;;;3.40;100.00
67840;BME280;54636;51.684;5.142;2022-11-20T13:08:18;100782.03;;;3.59;100.00
67840;BME280;54636;51.684;5.142;2022-11-20T13:10:59;100779.66;;;3.61;100.00
67840;BME280;54636;51.684;5.142;2022-11-20T13:13:47;100775.81;;;3.50;100.00
67840;BME280;54636;51.684;5.142;2022-11-20T13:16:33;100769.38;;;3.47;100.00
67840;BME280;54636;51.684;5.142;2022-11-20T13:19:05;100750.03;;;3.52;100.00
67840;BME280;54636;51.684;5.142;2022-11-20T13:21:38;100751.22;;;3.51;100.00
67840;BME280;54636;51.684;5.142;2022-11-20T13:24:19;100743.59;;;3.50;100.00
67840;BME280;54636;51.684;5.142;2022-11-20T13:26:45;100713.66;;;3.26;100.00
67840;BME280;54636;51.684;5.142;2022-11-20T13:29:16;100719.69;;;3.30;100.00
67840;BME280;54636;51.684;5.142;2022-11-20T13:31:47;100728.47;;;3.43;100.00
67840;BME280;54636;51.684;5.142;2022-11-20T13:34:33;100727.81;;;3.52;100.00
67840;BME280;54636;51.684;5.142;2022-11-20T13:36:59;100729.81;;;3.60;100.00
67840;BME280;54636;51.684;5.142;2022-11-20T13:39:33;100726.19;;;3.54;100.00
67840;BME280;54636;51.684;5.142;2022-11-20T13:42:20;100729.81;;;3.60;100.00
67840;BME280;54636;51.684;5.142;2022-11-20T13:44:54;100720.59;;;3.61;100.00
67840;BME280;54636;51.684;5.142;2022-11-20T13:47:25;100693.63;;;3.52;100.00
67840;BME280;54636;51.684;5.142;2022-11-20T13:49:52;100701.31;;;3.76;100.00
67840;BME280;54636;51.684;5.142;2022-11-20T13:55:28;100694.66;;;3.68;100.00